Time,TemperatureF,DewpointF,PressureIn,WindDirection,WindDirectionDegrees,WindSpeedMPH,WindSpeedGustMPH,Humidity,HourlyPrecipIn,Conditions,Clouds,dailyrainin,SoftwareType,DateUTC
2013-07-05 00:15:00,74.5,70.0,30.10,SW,220,5.0,8.0,86,0.00,,---,0.00,VWS V12.07,2013-07-05 04:15:00,
2013-07-05 00:25:00,74.6,70.1,30.10,SW,225,6.0,8.0,86,0.00,,---,0.00,VWS V12.07,2013-07-05 04:25:00,
2013-07-05 00:34:00,74.7,70.2,30.11,SW,232,4.0,9.0,86,0.00,,---,0.00,VWS V12.07,2013-07-05 04:34:00,
2013-07-05 00:36:00,74.7,70.2,30.11,West,261,4.0,9.0,86,0.00,,---,0.00,VWS V12.07,2013-07-05 04:36:00,
2013-07-05 00:46:00,74.7,70.2,30.10,SW,236,5.0,8.0,86,0.00,,---,0.00,VWS V12.07,2013-07-05 04:46:00,
2013-07-05 00:56:00,74.3,70.2,30.10,West,260,6.0,9.0,87,0.00,,---,0.00,VWS V12.07,2013-07-05 04:56:00,
2013-07-05 01:06:00,74.5,70.0,30.10,SW,233,5.0,10.0,86,0.00,,---,0.00,VWS V12.07,2013-07-05 05:06:00,
2013-07-05 01:16:00,74.1,70.0,30.11,SW,232,6.0,7.0,87,0.00,,---,0.00,VWS V12.07,2013-07-05 05:16:00,
2013-07-05 01:26:00,74.0,69.9,30.11,WSW,238,7.0,9.0,87,0.00,,---,0.00,VWS V12.07,2013-07-05 05:26:00,
2013-07-05 01:36:00,73.2,69.8,30.10,SSW,212,5.0,8.0,89,0.00,,---,0.00,VWS V12.07,2013-07-05 05:36:00,
2013-07-05 01:46:00,72.9,69.8,30.11,SSW,209,5.0,7.0,90,0.00,,---,0.00,VWS V12.07,2013-07-05 05:46:00,
2013-07-05 01:56:00,72.1,69.7,30.11,SW,236,6.0,7.0,92,0.00,,---,0.00,VWS V12.07,2013-07-05 05:56:00,
2013-07-05 02:06:00,72.1,69.7,30.10,SW,224,7.0,8.0,92,0.00,,---,0.00,VWS V12.07,2013-07-05 06:06:00,
2013-07-05 02:16:00,72.1,69.7,30.10,SW,214,4.0,7.0,92,0.00,,---,0.00,VWS V12.07,2013-07-05 06:16:00,
2013-07-05 02:26:00,72.0,69.6,30.10,SSW,206,4.0,7.0,92,0.00,,---,0.00,VWS V12.07,2013-07-05 06:26:00,
2013-07-05 02:36:00,72.1,69.7,30.11,SW,226,5.0,7.0,92,0.00,,---,0.00,VWS V12.07,2013-07-05 06:36:00,
2013-07-05 02:47:00,72.0,69.6,30.11,SW,218,5.0,7.0,92,0.00,,---,0.00,VWS V12.07,2013-07-05 06:47:00,
2013-07-05 02:56:00,72.0,69.9,30.11,SSW,210,6.0,7.0,93,0.00,,---,0.00,VWS V12.07,2013-07-05 06:56:00,
2013-07-05 03:06:00,72.0,69.9,30.11,SSW,212,5.0,8.0,93,0.00,,---,0.00,VWS V12.07,2013-07-05 07:06:00,
2013-07-05 03:16:00,71.9,69.8,30.11,SW,216,5.0,6.0,93,0.00,,---,0.00,VWS V12.07,2013-07-05 07:16:00,
2013-07-05 03:26:00,71.7,69.6,30.11,SW,219,5.0,7.0,93,0.00,,---,0.00,VWS V12.07,2013-07-05 07:26:00,
2013-07-05 03:36:00,71.5,69.7,30.10,SW,218,4.0,7.0,94,0.00,,---,0.00,VWS V12.07,2013-07-05 07:36:00,
2013-07-05 03:46:00,71.5,69.7,30.11,SSW,212,5.0,6.0,94,0.00,,---,0.00,VWS V12.07,2013-07-05 07:46:00,
2013-07-05 03:56:00,71.2,69.4,30.11,SW,219,5.0,7.0,94,0.00,,---,0.00,VWS V12.07,2013-07-05 07:56:00,
2013-07-05 04:06:00,71.3,69.5,30.11,SW,225,3.0,7.0,94,0.00,,---,0.00,VWS V12.07,2013-07-05 08:06:00,
2013-07-05 04:16:00,71.5,69.7,30.11,SW,215,3.0,5.0,94,0.00,,---,0.00,VWS V12.07,2013-07-05 08:16:00,
2013-07-05 04:26:00,71.7,69.6,30.11,SW,234,4.0,5.0,93,0.00,,---,0.00,VWS V12.07,2013-07-05 08:26:00,
2013-07-05 04:36:00,71.6,69.5,30.11,WSW,242,5.0,6.0,93,0.00,,---,0.00,VWS V12.07,2013-07-05 08:36:00,
2013-07-05 04:46:00,71.6,69.5,30.11,SW,225,4.0,5.0,93,0.00,,---,0.00,VWS V12.07,2013-07-05 08:46:00,
2013-07-05 04:56:00,71.1,69.3,30.11,SW,224,4.0,6.0,94,0.00,,---,0.00,VWS V12.07,2013-07-05 08:56:00,
2013-07-05 05:06:00,70.8,69.3,30.11,SW,226,4.0,6.0,95,0.00,,---,0.00,VWS V12.07,2013-07-05 09:06:00,
2013-07-05 05:16:00,70.5,69.3,30.12,SW,214,3.0,5.0,96,0.00,,---,0.00,VWS V12.07,2013-07-05 09:16:00,
2013-07-05 05:26:00,70.5,69.3,30.12,SW,229,5.0,6.0,96,0.00,,---,0.00,VWS V12.07,2013-07-05 09:26:00,
2013-07-05 05:36:00,70.6,69.4,30.12,SW,214,4.0,6.0,96,0.00,,---,0.00,VWS V12.07,2013-07-05 09:36:00,
2013-07-05 05:46:00,70.7,69.5,30.12,SSW,200,4.0,4.0,96,0.00,,---,0.00,VWS V12.07,2013-07-05 09:46:00,
2013-07-05 05:56:00,70.8,69.6,30.12,SW,216,4.0,5.0,96,0.00,,---,0.00,VWS V12.07,2013-07-05 09:56:00,
2013-07-05 06:06:00,71.0,69.8,30.12,SSW,209,5.0,5.0,96,0.00,,---,0.00,VWS V12.07,2013-07-05 10:06:00,
2013-07-05 06:16:00,71.3,69.8,30.13,SW,227,4.0,5.0,95,0.00,,---,0.00,VWS V12.07,2013-07-05 10:16:00,
2013-07-05 06:26:00,71.7,70.2,30.13,SW,230,3.0,5.0,95,0.00,,---,0.00,VWS V12.07,2013-07-05 10:26:00,
2013-07-05 06:56:00,72.6,70.5,30.13,SW,221,4.0,6.0,93,0.00,,---,0.00,VWS V12.07,2013-07-05 10:56:00,
2013-07-05 07:15:00,73.3,70.8,30.13,SW,223,4.0,7.0,92,0.00,,---,0.00,VWS V12.07,2013-07-05 11:15:00,
2013-07-05 07:27:00,73.9,71.1,30.13,SW,216,5.0,8.0,91,0.00,,---,0.00,VWS V12.07,2013-07-05 11:27:00,
2013-07-05 07:36:00,74.2,71.1,30.12,SW,217,6.0,9.0,90,0.00,,---,0.00,VWS V12.07,2013-07-05 11:36:00,
2013-07-05 07:46:00,74.7,71.6,30.13,SW,217,4.0,5.0,90,0.00,,---,0.00,VWS V12.07,2013-07-05 11:46:00,
2013-07-05 07:56:00,75.4,71.9,30.13,SSW,203,5.0,7.0,89,0.00,,---,0.00,VWS V12.07,2013-07-05 11:56:00,
2013-07-05 08:06:00,75.8,72.0,30.13,SSW,213,5.0,7.0,88,0.00,,---,0.00,VWS V12.07,2013-07-05 12:06:00,
2013-07-05 08:16:00,76.2,72.4,30.13,SSW,203,6.0,7.0,88,0.00,,---,0.00,VWS V12.07,2013-07-05 12:16:00,
2013-07-05 08:26:00,76.3,72.2,30.13,SW,216,5.0,8.0,87,0.00,,---,0.00,VWS V12.07,2013-07-05 12:26:00,
2013-07-05 08:45:00,77.1,72.2,30.13,SSW,206,5.0,8.0,85,0.00,,---,0.00,VWS V12.07,2013-07-05 12:45:00,
2013-07-05 08:55:00,77.6,72.7,30.13,SW,228,6.0,7.0,85,0.00,,---,0.00,VWS V12.07,2013-07-05 12:55:00,
2013-07-05 09:02:00,78.0,73.1,30.12,SSE,159,5.0,5.0,85,0.00,,---,0.00,VWS V12.07,2013-07-05 13:02:00,
2013-07-05 09:15:00,78.6,73.0,30.12,SW,215,5.0,9.0,83,0.00,,---,0.00,VWS V12.07,2013-07-05 13:15:00,
2013-07-05 09:25:00,78.7,73.5,30.12,SSW,209,5.0,9.0,84,0.00,,---,0.00,VWS V12.07,2013-07-05 13:25:00,
2013-07-05 09:35:00,79.3,74.1,30.12,SSW,202,4.0,8.0,84,0.00,,---,0.00,VWS V12.07,2013-07-05 13:35:00,
2013-07-05 09:45:00,79.8,74.2,30.12,SW,217,8.0,11.0,83,0.00,,---,0.00,VWS V12.07,2013-07-05 13:45:00,
2013-07-05 09:56:00,80.8,74.1,30.12,SW,219,7.0,11.0,80,0.00,,---,0.00,VWS V12.07,2013-07-05 13:56:00,
2013-07-05 10:06:00,81.1,74.0,30.12,SW,221,5.0,13.0,79,0.00,,---,0.00,VWS V12.07,2013-07-05 14:06:00,
2013-07-05 10:16:00,81.4,73.5,30.11,SW,227,10.0,10.0,77,0.00,,---,0.00,VWS V12.07,2013-07-05 14:16:00,
2013-07-05 10:55:00,82.0,73.3,30.11,SW,223,6.0,8.0,75,0.00,,---,0.00,VWS V12.07,2013-07-05 14:55:00,
2013-07-05 11:05:00,82.1,72.6,30.11,WNW,300,2.0,8.0,73,0.00,,---,0.00,VWS V12.07,2013-07-05 15:05:00,
2013-07-05 11:15:00,82.8,72.9,30.11,West,267,8.0,9.0,72,0.00,,---,0.00,VWS V12.07,2013-07-05 15:15:00,
2013-07-05 11:25:00,83.7,71.6,30.11,WNW,300,9.0,9.0,67,0.00,,---,0.00,VWS V12.07,2013-07-05 15:25:00,
2013-07-05 11:35:00,83.5,71.4,30.10,WSW,245,7.0,9.0,67,0.00,,---,0.00,VWS V12.07,2013-07-05 15:35:00,
2013-07-05 11:45:00,83.9,70.9,30.10,WSW,242,8.0,13.0,65,0.00,,---,0.00,VWS V12.07,2013-07-05 15:45:00,
2013-07-05 11:55:00,84.5,71.4,30.10,West,264,9.0,12.0,65,0.00,,---,0.00,VWS V12.07,2013-07-05 15:55:00,
2013-07-05 12:05:00,83.9,72.2,30.10,WSW,250,9.0,12.0,68,0.00,,---,0.00,VWS V12.07,2013-07-05 16:05:00,
2013-07-05 12:15:00,84.2,71.2,30.09,SW,232,11.0,13.0,65,0.00,,---,0.00,VWS V12.07,2013-07-05 16:15:00,
2013-07-05 12:25:00,82.9,70.8,30.09,West,263,7.0,11.0,67,0.00,,---,0.00,VWS V12.07,2013-07-05 16:25:00,
2013-07-05 12:35:00,84.0,71.9,30.09,SW,214,7.0,10.0,67,0.00,,---,0.00,VWS V12.07,2013-07-05 16:35:00,
2013-07-05 12:42:00,85.1,72.0,30.09,SW,216,5.0,10.0,65,0.00,,---,0.00,VWS V12.07,2013-07-05 16:42:00,
2013-07-05 12:56:00,84.5,71.9,30.08,SW,215,6.0,13.0,66,0.00,,---,0.00,VWS V12.07,2013-07-05 16:56:00,
2013-07-05 13:06:00,85.5,71.0,30.08,SW,223,7.0,12.0,62,0.00,,---,0.00,VWS V12.07,2013-07-05 17:06:00,
2013-07-05 13:16:00,85.9,70.4,30.07,SSW,209,7.0,14.0,60,0.00,,---,0.00,VWS V12.07,2013-07-05 17:16:00,
2013-07-05 13:26:00,85.6,71.6,30.07,WSW,247,9.0,14.0,63,0.00,,---,0.00,VWS V12.07,2013-07-05 17:26:00,
2013-07-05 13:36:00,86.0,71.5,30.08,West,267,8.0,13.0,62,0.00,,---,0.00,VWS V12.07,2013-07-05 17:36:00,
2013-07-05 13:46:00,86.3,70.3,30.07,SW,235,8.0,12.0,59,0.00,,---,0.00,VWS V12.07,2013-07-05 17:46:00,
2013-07-05 13:56:00,86.5,71.0,30.07,SSW,210,6.0,16.0,60,0.00,,---,0.00,VWS V12.07,2013-07-05 17:56:00,
2013-07-05 14:06:00,86.3,71.8,30.07,SSW,201,11.0,14.0,62,0.00,,---,0.00,VWS V12.07,2013-07-05 18:06:00,
2013-07-05 14:16:00,84.5,71.9,30.06,WSW,257,6.0,8.0,66,0.00,,---,0.00,VWS V12.07,2013-07-05 18:16:00,
2013-07-05 14:26:00,84.1,70.2,30.06,WSW,237,11.0,15.0,63,0.00,,---,0.00,VWS V12.07,2013-07-05 18:26:00,
2013-07-05 14:36:00,84.1,70.6,30.06,SSW,211,9.0,13.0,64,0.00,,---,0.00,VWS V12.07,2013-07-05 18:36:00,
2013-07-05 14:46:00,85.1,72.5,30.05,SW,230,9.0,13.0,66,0.00,,---,0.00,VWS V12.07,2013-07-05 18:46:00,
2013-07-05 14:56:00,85.5,71.0,30.05,West,263,11.0,15.0,62,0.00,,---,0.00,VWS V12.07,2013-07-05 18:56:00,
2013-07-05 15:05:00,84.5,73.7,30.05,SSW,210,9.0,10.0,70,0.00,,---,0.00,VWS V12.07,2013-07-05 19:05:00,
2013-07-05 15:15:00,84.5,71.9,30.04,South,190,8.0,11.0,66,0.00,,---,0.00,VWS V12.07,2013-07-05 19:15:00,
2013-07-05 15:25:00,83.8,73.4,30.04,SW,221,8.0,11.0,71,0.00,,---,0.00,VWS V12.07,2013-07-05 19:25:00,
2013-07-05 15:35:00,85.3,73.1,30.04,SW,229,11.0,15.0,67,0.00,,---,0.00,VWS V12.07,2013-07-05 19:35:00,
2013-07-05 15:41:00,86.0,73.3,30.04,WSW,246,6.0,15.0,66,0.00,,---,0.00,VWS V12.07,2013-07-05 19:41:00,
2013-07-05 15:55:00,87.2,72.1,30.04,West,262,9.0,11.0,61,0.00,,---,0.00,VWS V12.07,2013-07-05 19:55:00,
2013-07-05 16:05:00,86.9,75.1,30.04,West,264,4.0,11.0,68,0.00,,---,0.00,VWS V12.07,2013-07-05 20:05:00,
2013-07-05 16:15:00,86.5,72.4,30.03,SSW,202,4.0,11.0,63,0.00,,---,0.00,VWS V12.07,2013-07-05 20:15:00,
2013-07-05 16:25:00,85.5,70.5,30.03,West,264,5.0,12.0,61,0.00,,---,0.00,VWS V12.07,2013-07-05 20:25:00,
2013-07-05 16:35:00,84.3,70.8,30.03,WSW,243,3.0,8.0,64,0.00,,---,0.00,VWS V12.07,2013-07-05 20:35:00,
2013-07-05 16:45:00,85.0,74.6,30.03,SW,218,10.0,10.0,71,0.00,,---,0.00,VWS V12.07,2013-07-05 20:45:00,
2013-07-05 16:55:00,84.2,73.8,30.03,SSW,209,6.0,9.0,71,0.00,,---,0.00,VWS V12.07,2013-07-05 20:55:00,
2013-07-05 17:05:00,84.2,73.8,30.03,WSW,239,6.0,6.0,71,0.00,,---,0.00,VWS V12.07,2013-07-05 21:05:00,
2013-07-05 17:15:00,85.9,71.8,30.03,West,269,7.0,11.0,63,0.00,,---,0.00,VWS V12.07,2013-07-05 21:15:00,
2013-07-05 17:25:00,84.8,70.3,30.03,WSW,253,6.0,10.0,62,0.00,,---,0.00,VWS V12.07,2013-07-05 21:25:00,
2013-07-05 17:35:00,83.9,70.4,30.02,SW,229,5.0,8.0,64,0.00,,---,0.00,VWS V12.07,2013-07-05 21:35:00,
2013-07-05 17:45:00,83.8,69.4,30.01,WSW,240,6.0,8.0,62,0.00,,---,0.00,VWS V12.07,2013-07-05 21:45:00,
2013-07-05 17:55:00,84.7,70.7,30.01,WSW,238,6.0,7.0,63,0.00,,---,0.00,VWS V12.07,2013-07-05 21:55:00,
2013-07-05 18:05:00,85.4,70.9,30.01,West,278,3.0,9.0,62,0.00,,---,0.00,VWS V12.07,2013-07-05 22:05:00,
2013-07-05 18:15:00,85.6,71.1,30.01,WSW,258,1.0,9.0,62,0.00,,---,0.00,VWS V12.07,2013-07-05 22:15:00,
2013-07-05 18:25:00,85.1,71.1,30.01,West,268,4.0,5.0,63,0.00,,---,0.00,VWS V12.07,2013-07-05 22:25:00,
2013-07-05 18:33:00,83.4,70.4,30.01,West,265,4.0,5.0,65,0.00,,---,0.00,VWS V12.07,2013-07-05 22:33:00,
2013-07-05 18:46:00,82.4,70.3,30.01,WSW,247,3.0,3.0,67,0.00,,---,0.00,VWS V12.07,2013-07-05 22:46:00,
2013-07-05 18:56:00,82.1,70.1,30.01,SW,223,4.0,6.0,67,0.00,,---,0.00,VWS V12.07,2013-07-05 22:56:00,
2013-07-05 19:06:00,81.2,70.5,30.01,SW,227,6.0,7.0,70,0.00,,---,0.00,VWS V12.07,2013-07-05 23:06:00,
2013-07-05 19:16:00,80.7,70.0,30.01,WSW,246,8.0,9.0,70,0.00,,---,0.00,VWS V12.07,2013-07-05 23:16:00,
2013-07-05 19:26:00,80.4,70.1,30.01,WSW,243,9.0,12.0,71,0.00,,---,0.00,VWS V12.07,2013-07-05 23:26:00,
2013-07-05 19:36:00,80.6,69.9,30.02,WSW,251,9.0,12.0,70,0.00,,---,0.00,VWS V12.07,2013-07-05 23:36:00,
2013-07-05 19:46:00,80.1,69.9,30.01,WSW,243,7.0,10.0,71,0.00,,---,0.00,VWS V12.07,2013-07-05 23:46:00,
2013-07-05 19:56:00,80.2,70.4,30.01,WSW,241,9.0,11.0,72,0.00,,---,0.00,VWS V12.07,2013-07-05 23:56:00,
2013-07-05 20:06:00,79.6,70.6,30.00,WSW,242,6.0,13.0,74,0.00,,---,0.00,VWS V12.07,2013-07-06 00:06:00,
2013-07-05 20:16:00,79.1,70.9,30.01,WSW,249,10.0,13.0,76,0.00,,---,0.00,VWS V12.07,2013-07-06 00:16:00,
2013-07-05 20:27:00,78.2,71.2,30.01,WSW,258,10.0,16.0,79,0.00,,---,0.00,VWS V12.07,2013-07-06 00:27:00,
2013-07-05 20:36:00,77.3,71.0,30.00,WSW,246,6.0,11.0,81,0.00,,---,0.00,VWS V12.07,2013-07-06 00:36:00,
2013-07-05 20:46:00,77.3,71.4,30.02,SW,232,7.0,10.0,82,0.00,,---,0.00,VWS V12.07,2013-07-06 00:46:00,
2013-07-05 20:55:00,77.2,71.3,30.02,WSW,242,8.0,12.0,82,0.00,,---,0.00,VWS V12.07,2013-07-06 00:55:00,
2013-07-05 21:05:00,77.0,71.4,30.03,West,267,8.0,11.0,83,0.00,,---,0.00,VWS V12.07,2013-07-06 01:05:00,
2013-07-05 21:15:00,76.6,71.4,30.05,NW,313,6.0,6.0,84,0.00,,---,0.00,VWS V12.07,2013-07-06 01:15:00,
2013-07-05 21:25:00,76.2,71.0,30.05,NNE,19,6.0,19.0,84,0.00,,---,0.00,VWS V12.07,2013-07-06 01:25:00,
2013-07-05 21:32:00,75.9,70.0,30.05,NNE,13,4.0,5.0,82,0.00,,---,0.00,VWS V12.07,2013-07-06 01:32:00,
2013-07-05 21:46:00,74.2,70.1,30.04,North,350,5.0,7.0,87,0.00,,---,0.00,VWS V12.07,2013-07-06 01:46:00,
2013-07-05 21:56:00,73.1,69.7,30.04,WNW,301,4.0,8.0,89,0.00,,---,0.00,VWS V12.07,2013-07-06 01:56:00,
2013-07-05 22:06:00,72.7,69.6,30.04,West,276,7.0,8.0,90,0.00,,---,0.00,VWS V12.07,2013-07-06 02:06:00,
2013-07-05 22:16:00,73.2,69.4,30.04,West,278,8.0,10.0,88,0.00,,---,0.00,VWS V12.07,2013-07-06 02:16:00,
2013-07-05 22:27:00,72.6,69.5,30.04,WSW,258,6.0,10.0,90,0.00,,---,0.00,VWS V12.07,2013-07-06 02:27:00,
2013-07-05 22:36:00,72.6,68.8,30.04,West,281,9.0,14.0,88,0.00,,---,0.00,VWS V12.07,2013-07-06 02:36:00,
2013-07-05 22:46:00,72.4,68.7,30.04,West,281,9.0,12.0,88,0.00,,---,0.00,VWS V12.07,2013-07-06 02:46:00,
2013-07-05 22:56:00,72.3,68.9,30.04,West,267,9.0,14.0,89,0.00,,---,0.00,VWS V12.07,2013-07-06 02:56:00,
2013-07-05 23:06:00,72.1,69.0,30.04,West,276,6.0,8.0,90,0.00,,---,0.00,VWS V12.07,2013-07-06 03:06:00,
2013-07-05 23:16:00,72.3,68.9,30.03,WSW,248,6.0,7.0,89,0.00,,---,0.00,VWS V12.07,2013-07-06 03:16:00,
2013-07-05 23:26:00,72.1,69.0,30.03,WSW,242,4.0,7.0,90,0.00,,---,0.00,VWS V12.07,2013-07-06 03:26:00,
2013-07-05 23:36:00,72.0,68.9,30.03,WSW,257,3.0,6.0,90,0.00,,---,0.00,VWS V12.07,2013-07-06 03:36:00,
2013-07-05 23:46:00,72.4,69.0,30.04,WNW,284,4.0,6.0,89,0.00,,---,0.00,VWS V12.07,2013-07-06 03:46:00,
2013-07-05 23:56:00,73.0,69.2,30.04,West,262,4.0,8.0,88,0.00,,---,0.00,VWS V12.07,2013-07-06 03:56:00,